Time;durP1;ratioP1;P1;durP2;ratioP2;P2;SDS_P1;SDS_P2;PMS_P1;PMS_P2;Temp;Humidity;BMP_temperature;BMP_pressure;BME280_temperature;BME280_humidity;BME280_pressure;Samples;Min_cycle;Max_cycle;Signal;HPM_P1;HPM_P2
2021/07/29 00:00:53;;;;;;;4.07;1.92;;;17.50;99.90;;;;;;5103075;28;20035;-83
2021/07/29 00:03:19;;;;;;;3.80;1.90;;;17.40;99.90;;;;;;5076983;28;20029;-83
2021/07/29 00:05:46;;;;;;;6.13;2.55;;;17.50;99.90;;;;;;5076176;28;20028;-83
2021/07/29 00:08:12;;;;;;;3.70;2.10;;;17.40;99.90;;;;;;5076240;28;20593;-83
2021/07/29 00:10:38;;;;;;;4.13;2.28;;;17.40;99.90;;;;;;5077895;28;20071;-83
2021/07/29 00:13:04;;;;;;;4.20;2.55;;;17.40;99.90;;;;;;5078446;28;20048;-83
2021/07/29 00:15:29;;;;;;;4.90;2.40;;;17.30;99.90;;;;;;5078566;28;20028;-83
2021/07/29 00:20:28;;;;;;;5.22;2.40;;;17.30;99.90;;;;;;5078987;28;20025;-83
2021/07/29 00:22:58;;;;;;;4.53;2.25;;;17.20;99.90;;;;;;5080169;28;20033;-83
2021/07/29 00:25:24;;;;;;;4.93;2.40;;;17.20;99.90;;;;;;5095360;28;20072;-83
2021/07/29 00:27:51;;;;;;;4.97;2.10;;;17.10;99.90;;;;;;5096423;28;20021;-83
2021/07/29 00:30:18;;;;;;;12.32;2.35;;;17.10;99.90;;;;;;5080252;28;20092;-83
2021/07/29 00:32:45;;;;;;;3.80;2.35;;;17.10;99.90;;;;;;5078358;28;20066;-82
2021/07/29 00:35:14;;;;;;;4.50;2.05;;;17.10;99.90;;;;;;5078689;28;20045;-82
2021/07/29 00:37:41;;;;;;;4.63;2.10;;;17.00;99.90;;;;;;5109269;28;20038;-83
2021/07/29 00:40:07;;;;;;;4.53;2.22;;;17.00;99.90;;;;;;5106212;28;20027;-82
2021/07/29 00:42:32;;;;;;;4.25;2.20;;;17.00;99.90;;;;;;5120914;28;20011;-83
2021/07/29 00:44:58;;;;;;;9.07;2.65;;;17.10;99.90;;;;;;5115857;28;20376;-83
2021/07/29 00:47:24;;;;;;;4.10;2.20;;;17.00;99.90;;;;;;5120962;28;20020;-83
2021/07/29 00:49:50;;;;;;;3.92;2.05;;;17.10;99.90;;;;;;5118349;28;20051;-82
2021/07/29 00:52:20;;;;;;;5.32;2.30;;;17.00;99.90;;;;;;5119524;28;20061;-83
2021/07/29 00:54:47;;;;;;;5.15;2.20;;;17.00;99.90;;;;;;5097719;28;20032;-83
2021/07/29 00:57:13;;;;;;;5.68;2.40;;;17.00;99.90;;;;;;5100017;28;20031;-83
2021/07/29 00:59:39;;;;;;;6.32;2.58;;;17.00;99.90;;;;;;5098408;28;20027;-83
2021/07/29 01:02:05;;;;;;;4.43;2.70;;;17.00;99.90;;;;;;5094620;28;20436;-83
2021/07/29 01:04:31;;;;;;;6.18;2.72;;;17.00;99.90;;;;;;5079971;28;20082;-83
2021/07/29 01:06:56;;;;;;;3.53;2.03;;;17.00;99.90;;;;;;5080622;28;20035;-83
2021/07/29 01:09:22;;;;;;;5.35;2.33;;;17.00;99.90;;;;;;5079383;28;20110;-83
2021/07/29 01:11:48;;;;;;;5.40;2.17;;;17.00;99.90;;;;;;5101226;28;20063;-84
2021/07/29 01:14:14;;;;;;;6.57;2.42;;;17.00;99.90;;;;;;5081243;28;20033;-82
2021/07/29 01:16:41;;;;;;;4.18;2.30;;;16.90;99.90;;;;;;5079607;28;20024;-82
2021/07/29 01:19:08;;;;;;;5.82;2.55;;;16.80;99.90;;;;;;5088041;28;20029;-82
2021/07/29 01:21:34;;;;;;;5.07;2.67;;;16.70;99.90;;;;;;5091321;28;20032;-82
2021/07/29 01:24:00;;;;;;;4.53;2.22;;;16.70;99.90;;;;;;5085648;28;20081;-82
2021/07/29 01:26:27;;;;;;;5.53;2.70;;;16.70;99.90;;;;;;5103112;28;20063;-82
2021/07/29 01:28:53;;;;;;;5.63;2.38;;;16.70;99.90;;;;;;5085035;28;20063;-82
2021/07/29 01:31:19;;;;;;;5.28;2.97;;;16.60;99.90;;;;;;5073526;28;20082;-82
2021/07/29 01:33:45;;;;;;;4.60;2.45;;;16.60;99.90;;;;;;5075432;28;20546;-82
2021/07/29 01:36:11;;;;;;;7.45;2.30;;;16.60;99.90;;;;;;5073269;28;20036;-82
2021/07/29 01:38:36;;;;;;;5.68;2.72;;;16.50;99.90;;;;;;5092211;28;20039;-84
2021/07/29 01:41:02;;;;;;;6.18;2.88;;;16.50;99.90;;;;;;5096167;28;20024;-83
2021/07/29 01:43:29;;;;;;;6.03;2.92;;;16.30;99.90;;;;;;5094765;28;20024;-81
2021/07/29 01:45:55;;;;;;;4.97;2.50;;;16.30;99.90;;;;;;5097782;28;20040;-82
2021/07/29 01:48:20;;;;;;;5.95;2.58;;;16.30;99.90;;;;;;5075456;28;20040;-82
2021/07/29 01:50:46;;;;;;;7.78;2.67;;;16.20;99.90;;;;;;5075183;28;20032;-83
2021/07/29 01:53:12;;;;;;;5.57;2.58;;;16.20;99.90;;;;;;5074423;28;20027;-83
2021/07/29 01:55:45;;;;;;;5.00;2.63;;;16.20;99.90;;;;;;5077286;28;20093;-84
2021/07/29 01:58:11;;;;;;;4.47;2.67;;;16.30;99.90;;;;;;5078362;28;20028;-83
2021/07/29 02:00:39;;;;;;;6.05;2.60;;;16.30;99.90;;;;;;5079946;28;20541;-82
2021/07/29 02:03:05;;;;;;;6.15;2.90;;;16.40;99.90;;;;;;5076760;28;20048;-84
2021/07/29 02:05:31;;;;;;;7.47;3.25;;;16.30;99.90;;;;;;5076702;28;20024;-83
2021/07/29 02:07:57;;;;;;;6.40;2.90;;;16.40;99.90;;;;;;5077848;28;20081;-83
2021/07/29 02:10:22;;;;;;;6.18;2.75;;;16.40;99.90;;;;;;5075116;28;20036;-82
2021/07/29 02:12:49;;;;;;;5.10;2.50;;;16.30;99.90;;;;;;5077427;28;20045;-83
2021/07/29 02:15:15;;;;;;;4.85;2.78;;;16.40;99.90;;;;;;5075492;28;20119;-83
2021/07/29 02:17:40;;;;;;;5.53;2.50;;;16.40;99.90;;;;;;5075723;28;20113;-82
2021/07/29 02:20:07;;;;;;;4.30;2.55;;;16.40;99.90;;;;;;5081562;28;20024;-83
2021/07/29 02:22:32;;;;;;;6.68;2.53;;;16.30;99.90;;;;;;5095272;28;20035;-83
2021/07/29 02:24:58;;;;;;;4.55;2.75;;;16.40;99.90;;;;;;5095535;28;20110;-83
2021/07/29 02:27:24;;;;;;;4.65;2.83;;;16.30;99.90;;;;;;5095726;28;20035;-83
2021/07/29 02:29:53;;;;;;;5.68;2.85;;;16.30;99.90;;;;;;5092565;28;20047;-82
2021/07/29 02:32:19;;;;;;;4.80;2.55;;;16.20;99.90;;;;;;5075125;28;20071;-83
2021/07/29 02:34:45;;;;;;;5.00;2.70;;;16.00;99.90;;;;;;5076577;28;20028;-83
2021/07/29 02:37:11;;;;;;;4.85;2.75;;;16.00;99.90;;;;;;5076055;28;20021;-82
2021/07/29 02:39:37;;;;;;;5.75;3.10;;;15.90;99.90;;;;;;5078342;28;20020;-83
2021/07/29 02:42:04;;;;;;;4.85;2.75;;;15.90;99.90;;;;;;5079680;28;20104;-83
2021/07/29 02:44:29;;;;;;;5.35;2.83;;;15.80;99.90;;;;;;5097409;28;20174;-83
2021/07/29 02:46:55;;;;;;;7.72;3.40;;;15.80;99.90;;;;;;5084806;28;20064;-83
2021/07/29 02:49:21;;;;;;;6.05;3.10;;;15.70;99.90;;;;;;5095315;28;20091;-83
2021/07/29 02:51:46;;;;;;;5.57;3.03;;;15.70;99.90;;;;;;5096177;28;20028;-82
2021/07/29 02:54:12;;;;;;;8.68;3.00;;;15.60;99.90;;;;;;5095134;28;20024;-82
2021/07/29 02:56:37;;;;;;;6.20;2.83;;;15.60;99.90;;;;;;5092996;28;20084;-82
2021/07/29 02:59:03;;;;;;;4.78;3.08;;;15.60;99.90;;;;;;5098697;28;20028;-83
2021/07/29 03:01:29;;;;;;;5.95;2.78;;;15.50;99.90;;;;;;5100502;28;20020;-83
2021/07/29 03:03:54;;;;;;;7.25;3.33;;;15.50;99.90;;;;;;5099677;28;20429;-82
2021/07/29 03:06:20;;;;;;;6.53;3.40;;;15.50;99.90;;;;;;5091886;28;20032;-82
2021/07/29 03:08:46;;;;;;;6.32;3.53;;;15.50;99.90;;;;;;5099312;28;20081;-83
2021/07/29 03:11:12;;;;;;;5.80;3.00;;;15.50;99.90;;;;;;5099625;28;20028;-83
2021/07/29 03:13:37;;;;;;;8.15;3.58;;;15.50;99.90;;;;;;5099201;28;20040;-83
2021/07/29 03:16:04;;;;;;;4.60;2.60;;;15.40;99.90;;;;;;5097862;28;20064;-82
2021/07/29 03:18:29;;;;;;;5.18;2.90;;;15.40;99.90;;;;;;5098722;28;20024;-83
2021/07/29 03:20:55;;;;;;;5.88;3.22;;;15.40;99.90;;;;;;5100267;28;20090;-83
2021/07/29 03:23:21;;;;;;;7.90;2.97;;;15.40;99.90;;;;;;5089252;28;20546;-83
2021/07/29 03:25:49;;;;;;;5.93;3.15;;;15.50;99.90;;;;;;5097210;28;20032;-83
2021/07/29 03:28:15;;;;;;;7.03;3.13;;;15.40;99.90;;;;;;5098754;28;20027;-84
2021/07/29 03:30:41;;;;;;;6.40;3.47;;;15.40;99.90;;;;;;5093592;28;20025;-82
2021/07/29 03:33:09;;;;;;;6.05;3.22;;;15.40;99.90;;;;;;5099031;28;20472;-84
2021/07/29 03:35:38;;;;;;;5.45;3.28;;;15.40;99.90;;;;;;5098950;28;20457;-82
2021/07/29 03:38:08;;;;;;;9.27;3.25;;;15.40;99.90;;;;;;5098789;28;20036;-83
2021/07/29 03:40:35;;;;;;;7.85;3.10;;;15.40;99.90;;;;;;5096959;28;20032;-83
2021/07/29 03:43:02;;;;;;;6.68;2.70;;;15.30;99.90;;;;;;5098084;28;20055;-82
2021/07/29 03:45:32;;;;;;;8.82;3.60;;;15.30;99.90;;;;;;5098231;28;20111;-82
2021/07/29 03:47:59;;;;;;;5.55;3.08;;;15.30;99.90;;;;;;5093702;28;20554;-82
2021/07/29 03:50:25;;;;;;;9.88;3.28;;;15.30;99.90;;;;;;5090256;28;20044;-83
2021/07/29 03:52:51;;;;;;;6.53;3.33;;;15.30;99.90;;;;;;5098799;28;20779;-83
2021/07/29 03:55:17;;;;;;;5.95;3.60;;;15.40;99.90;;;;;;5097765;28;20035;-83
2021/07/29 03:57:43;;;;;;;5.80;3.15;;;15.20;99.90;;;;;;5096675;28;20035;-83
2021/07/29 04:00:09;;;;;;;6.38;3.22;;;15.30;99.90;;;;;;5098948;28;20107;-83
2021/07/29 04:02:35;;;;;;;6.60;3.30;;;15.20;99.90;;;;;;5097383;28;20024;-83
2021/07/29 04:05:02;;;;;;;7.90;3.20;;;15.20;99.90;;;;;;5091001;28;20078;-83
2021/07/29 04:07:28;;;;;;;6.22;3.20;;;15.10;99.90;;;;;;5077689;28;20032;-82
2021/07/29 04:09:53;;;;;;;6.32;3.55;;;15.10;99.90;;;;;;5097179;28;20419;-82
2021/07/29 04:12:19;;;;;;;7.10;3.05;;;15.10;99.90;;;;;;5096844;28;20160;-83
2021/07/29 04:14:45;;;;;;;5.78;3.08;;;15.30;99.90;;;;;;5092911;28;20052;-83
2021/07/29 04:17:11;;;;;;;5.55;3.03;;;15.20;99.90;;;;;;5096232;28;20028;-83
2021/07/29 04:19:37;;;;;;;7.68;3.08;;;15.30;99.90;;;;;;5095578;28;20074;-82
2021/07/29 04:22:06;;;;;;;6.03;3.17;;;15.40;99.90;;;;;;5091871;28;20016;-82
2021/07/29 04:24:32;;;;;;;5.13;2.80;;;15.30;99.90;;;;;;5087296;28;20446;-83
2021/07/29 04:26:58;;;;;;;5.53;3.40;;;15.30;99.90;;;;;;5091107;28;20020;-83
2021/07/29 04:29:25;;;;;;;9.82;2.97;;;15.40;99.90;;;;;;5090582;28;20028;-82
2021/07/29 04:31:51;;;;;;;5.38;3.05;;;15.50;99.90;;;;;;5091097;28;20032;-82
2021/07/29 04:34:17;;;;;;;5.65;3.00;;;15.60;99.90;;;;;;5090262;28;20135;-82
2021/07/29 04:36:42;;;;;;;5.20;2.88;;;15.60;99.90;;;;;;5091416;28;20115;-83
2021/07/29 04:39:08;;;;;;;4.72;2.78;;;15.70;99.90;;;;;;5091628;28;20024;-82
2021/07/29 04:41:39;;;;;;;4.65;2.60;;;15.70;99.90;;;;;;5090491;28;20056;-82
2021/07/29 04:44:07;;;;;;;5.90;3.00;;;15.70;99.90;;;;;;5096283;28;20027;-83
2021/07/29 04:46:36;;;;;;;4.55;2.60;;;15.70;99.90;;;;;;5091453;28;20040;-83
2021/07/29 04:49:07;;;;;;;6.97;2.92;;;15.80;99.90;;;;;;5092089;28;20059;-82
2021/07/29 04:51:33;;;;;;;5.75;2.53;;;15.90;99.90;;;;;;5091306;28;20089;-82
2021/07/29 04:53:59;;;;;;;6.65;3.08;;;15.90;99.90;;;;;;5087935;28;20036;-81
2021/07/29 04:56:25;;;;;;;4.35;2.70;;;16.00;99.90;;;;;;5092243;28;20058;-83
2021/07/29 04:58:51;;;;;;;18.58;4.70;;;16.00;99.90;;;;;;5091846;28;20024;-83
2021/07/29 05:01:17;;;;;;;8.55;2.88;;;15.90;99.90;;;;;;5090686;28;20028;-82
2021/07/29 05:03:43;;;;;;;6.75;3.13;;;15.90;99.90;;;;;;5090140;28;20119;-83
2021/07/29 05:06:09;;;;;;;8.35;2.58;;;16.00;99.90;;;;;;5091605;28;20154;-83
2021/07/29 05:08:35;;;;;;;4.13;2.25;;;15.90;99.90;;;;;;5092157;28;20523;-82
2021/07/29 05:11:03;;;;;;;4.35;2.25;;;15.90;99.90;;;;;;5085461;28;20396;-82
2021/07/29 05:13:28;;;;;;;8.35;2.50;;;15.80;99.90;;;;;;5085703;28;20472;-84
2021/07/29 05:15:54;;;;;;;7.80;2.63;;;15.80;99.90;;;;;;5090195;28;20101;-82
2021/07/29 05:18:20;;;;;;;6.88;2.40;;;15.80;99.90;;;;;;5093360;28;20468;-82
2021/07/29 05:20:45;;;;;;;6.00;2.90;;;15.70;99.90;;;;;;5091773;28;20116;-81
2021/07/29 05:23:11;;;;;;;5.07;2.60;;;15.80;99.90;;;;;;5090354;28;20031;-82
2021/07/29 05:25:37;;;;;;;3.67;2.17;;;15.70;99.90;;;;;;5092941;28;20020;-82
2021/07/29 05:28:03;;;;;;;6.10;2.65;;;15.70;99.90;;;;;;5092774;28;20091;-83
2021/07/29 05:30:28;;;;;;;4.30;2.30;;;15.70;99.90;;;;;;5090750;28;20040;-82
2021/07/29 05:32:54;;;;;;;4.35;2.38;;;15.70;99.90;;;;;;5080054;28;20399;-82
2021/07/29 05:35:20;;;;;;;4.88;2.45;;;15.80;99.90;;;;;;5091182;28;20039;-82
2021/07/29 05:37:45;;;;;;;4.55;2.55;;;16.00;99.90;;;;;;5092274;28;20047;-82
2021/07/29 05:40:11;;;;;;;6.03;2.40;;;16.10;99.90;;;;;;5090970;28;20694;-83
2021/07/29 05:42:37;;;;;;;6.20;2.53;;;16.10;99.90;;;;;;5092325;28;20028;-82
2021/07/29 05:45:03;;;;;;;4.53;2.42;;;16.10;99.90;;;;;;5109547;28;20078;-83
2021/07/29 05:47:29;;;;;;;4.57;2.38;;;16.10;99.90;;;;;;5097301;28;20047;-82
2021/07/29 05:49:55;;;;;;;4.80;2.40;;;16.20;99.90;;;;;;5092934;28;20068;-83
2021/07/29 05:52:20;;;;;;;4.35;1.98;;;16.20;99.90;;;;;;5103615;28;20034;-82
2021/07/29 05:54:46;;;;;;;3.97;2.05;;;16.30;99.90;;;;;;5102698;28;20616;-83
2021/07/29 05:57:11;;;;;;;4.22;2.30;;;16.50;99.90;;;;;;5105608;28;20027;-83
2021/07/29 05:59:37;;;;;;;6.35;2.05;;;16.60;99.90;;;;;;5103633;28;20017;-83
2021/07/29 06:02:03;;;;;;;5.88;2.40;;;16.70;99.90;;;;;;5100756;28;20020;-83
2021/07/29 06:04:28;;;;;;;5.97;2.25;;;16.70;99.90;;;;;;5101413;28;20452;-83
2021/07/29 06:06:54;;;;;;;4.65;2.28;;;16.90;99.90;;;;;;5098073;28;20034;-82
2021/07/29 06:09:20;;;;;;;4.30;2.30;;;17.00;99.90;;;;;;5102917;28;20052;-82
2021/07/29 06:11:45;;;;;;;5.22;2.10;;;17.20;99.90;;;;;;5102540;28;20096;-83
2021/07/29 06:14:11;;;;;;;5.78;2.10;;;17.40;99.90;;;;;;5100749;28;20091;-83
2021/07/29 06:16:36;;;;;;;4.05;2.08;;;17.60;99.90;;;;;;5098757;28;20066;-82
2021/07/29 06:19:07;;;;;;;6.03;2.05;;;17.80;99.90;;;;;;5100125;28;20024;-83
2021/07/29 06:21:34;;;;;;;4.35;2.00;;;17.90;99.90;;;;;;5096897;28;20404;-83
2021/07/29 06:24:00;;;;;;;3.30;1.77;;;18.10;99.90;;;;;;5100496;28;20102;-83
2021/07/29 06:26:25;;;;;;;3.80;1.75;;;18.20;99.90;;;;;;5099187;28;20039;-82
2021/07/29 06:28:51;;;;;;;4.55;1.77;;;18.30;99.90;;;;;;5100975;28;20314;-83
2021/07/29 06:31:16;;;;;;;4.00;1.70;;;18.40;99.90;;;;;;5096842;28;20032;-82
2021/07/29 06:33:42;;;;;;;4.82;1.80;;;18.50;99.90;;;;;;5092439;28;20069;-82
2021/07/29 06:36:08;;;;;;;3.90;1.83;;;18.50;99.90;;;;;;5102175;28;20039;-83
2021/07/29 06:38:33;;;;;;;4.50;1.95;;;18.60;99.90;;;;;;5103216;28;20024;-83
2021/07/29 06:40:59;;;;;;;7.45;2.10;;;18.70;99.90;;;;;;5093122;28;20131;-82
2021/07/29 06:43:25;;;;;;;5.40;1.83;;;18.70;99.90;;;;;;5094916;28;20089;-83
2021/07/29 06:45:51;;;;;;;5.88;2.00;;;18.80;99.90;;;;;;5087111;28;20047;-83
2021/07/29 06:48:17;;;;;;;3.78;1.90;;;19.00;99.90;;;;;;5096053;28;20115;-83
2021/07/29 06:50:44;;;;;;;3.38;1.98;;;19.10;99.90;;;;;;5081612;28;20020;-82
2021/07/29 06:53:09;;;;;;;4.70;1.98;;;19.10;99.90;;;;;;5086729;28;20085;-82
2021/07/29 06:55:35;;;;;;;5.18;1.90;;;19.20;99.90;;;;;;5080709;28;20341;-83
2021/07/29 06:58:00;;;;;;;4.20;1.80;;;19.30;99.90;;;;;;5076986;28;20126;-87
2021/07/29 07:00:26;;;;;;;3.85;1.88;;;19.50;99.90;;;;;;5096365;28;20028;-85
2021/07/29 07:02:53;;;;;;;4.50;1.60;;;19.60;99.90;;;;;;5083334;28;20024;-85
2021/07/29 07:05:18;;;;;;;5.50;1.95;;;19.60;99.90;;;;;;5071240;28;20032;-85
2021/07/29 07:07:44;;;;;;;4.70;1.90;;;19.70;99.90;;;;;;5074431;28;20082;-83
2021/07/29 07:10:10;;;;;;;4.78;1.63;;;19.70;99.90;;;;;;5079342;28;20030;-84
2021/07/29 07:12:36;;;;;;;4.15;1.88;;;19.70;99.90;;;;;;5077357;28;20024;-84
2021/07/29 07:15:03;;;;;;;3.90;1.60;;;19.80;99.90;;;;;;5071188;28;20027;-85
2021/07/29 07:17:28;;;;;;;5.53;1.63;;;19.90;99.90;;;;;;5080074;28;20021;-85
2021/07/29 07:19:58;;;;;;;3.60;1.80;;;20.10;99.90;;;;;;5078332;28;20027;-85
2021/07/29 07:22:24;;;;;;;4.88;2.13;;;20.10;99.90;;;;;;5077189;28;20087;-85
2021/07/29 07:24:50;;;;;;;7.55;2.35;;;20.20;99.90;;;;;;5081844;28;20032;-86
2021/07/29 07:27:15;;;;;;;5.57;2.08;;;20.20;99.90;;;;;;5074492;28;20016;-87
2021/07/29 07:29:41;;;;;;;4.60;1.50;;;20.10;99.90;;;;;;5074737;28;20024;-87
2021/07/29 07:32:07;;;;;;;3.78;1.80;;;20.30;99.90;;;;;;5072331;28;20364;-86
2021/07/29 07:34:32;;;;;;;4.88;1.75;;;20.30;99.90;;;;;;5084136;28;20158;-86
2021/07/29 07:36:58;;;;;;;3.40;1.65;;;20.40;99.90;;;;;;5083931;28;20081;-85
2021/07/29 07:39:25;;;;;;;7.07;1.92;;;20.40;99.90;;;;;;5078453;28;20036;-84
2021/07/29 07:41:51;;;;;;;3.28;1.83;;;20.30;99.90;;;;;;5085908;28;20028;-85
2021/07/29 07:44:17;;;;;;;3.78;1.70;;;20.20;99.90;;;;;;5076290;28;20024;-85
2021/07/29 07:46:45;;;;;;;5.18;1.73;;;20.20;99.90;;;;;;5083356;28;20492;-84
2021/07/29 07:49:12;;;;;;;4.43;1.98;;;20.40;99.90;;;;;;5073672;28;20031;-88
2021/07/29 07:51:38;;;;;;;3.25;1.83;;;20.50;99.90;;;;;;5075280;28;20106;-86
2021/07/29 07:54:04;;;;;;;5.82;1.80;;;20.60;99.90;;;;;;5076095;28;20032;-86
2021/07/29 07:56:30;;;;;;;4.07;1.88;;;20.70;99.90;;;;;;5075003;28;20021;-86
2021/07/29 07:58:55;;;;;;;5.03;1.90;;;20.70;99.90;;;;;;5075243;28;20111;-87
2021/07/29 08:01:21;;;;;;;4.55;1.90;;;20.60;99.90;;;;;;5071635;28;20035;-87
2021/07/29 08:03:47;;;;;;;3.72;2.00;;;20.60;99.90;;;;;;5075825;28;20062;-87
2021/07/29 08:06:13;;;;;;;5.90;1.85;;;20.40;99.90;;;;;;5073212;28;20035;-87
2021/07/29 08:08:39;;;;;;;4.38;2.28;;;20.30;99.90;;;;;;5071128;28;20020;-87
2021/07/29 08:11:06;;;;;;;3.53;1.88;;;20.10;99.90;;;;;;5072733;28;20016;-87
2021/07/29 08:13:32;;;;;;;4.63;2.25;;;20.10;99.90;;;;;;5075732;28;20027;-87
2021/07/29 08:15:58;;;;;;;5.35;2.30;;;20.00;99.90;;;;;;5077595;28;20150;-86
2021/07/29 08:18:24;;;;;;;5.20;2.35;;;20.10;99.90;;;;;;5070897;28;20123;-86
2021/07/29 08:20:49;;;;;;;4.07;2.05;;;20.10;99.90;;;;;;5071945;28;20032;-86
2021/07/29 08:23:15;;;;;;;6.03;2.13;;;20.20;99.90;;;;;;5077544;28;20484;-87
2021/07/29 08:25:40;;;;;;;6.28;1.83;;;20.30;99.90;;;;;;5082169;28;20420;-86
2021/07/29 08:28:07;;;;;;;7.95;2.15;;;20.30;99.90;;;;;;5076180;28;20059;-87
2021/07/29 08:30:33;;;;;;;4.22;2.13;;;20.60;99.90;;;;;;5071357;28;20036;-87
2021/07/29 08:33:06;;;;;;;6.50;2.15;;;20.90;99.90;;;;;;5075066;28;20090;-87
2021/07/29 08:35:35;;;;;;;3.95;2.08;;;21.10;99.90;;;;;;5075095;28;20031;-86
2021/07/29 08:38:01;;;;;;;6.55;2.50;;;21.10;99.90;;;;;;5083963;28;20416;-86
2021/07/29 08:40:26;;;;;;;6.65;2.30;;;21.50;99.90;;;;;;5082192;28;20107;-85
2021/07/29 08:42:52;;;;;;;4.68;2.05;;;21.70;99.90;;;;;;5087705;28;20024;-85
2021/07/29 08:45:18;;;;;;;5.65;2.03;;;21.50;99.90;;;;;;5080671;28;20038;-86
2021/07/29 08:47:44;;;;;;;3.88;1.83;;;21.60;99.90;;;;;;5077122;28;20055;-86
2021/07/29 08:50:12;;;;;;;4.40;2.00;;;21.60;99.90;;;;;;5071225;28;20060;-85
2021/07/29 08:52:37;;;;;;;7.30;2.50;;;21.30;99.90;;;;;;5074305;28;20492;-86
2021/07/29 08:55:04;;;;;;;6.32;1.98;;;21.30;99.90;;;;;;5077607;28;20028;-86
2021/07/29 08:57:34;;;;;;;6.82;2.35;;;21.00;99.90;;;;;;5091455;28;20020;-86
2021/07/29 09:00:09;;;;;;;5.20;2.00;;;21.10;99.90;;;;;;5088824;28;20503;-85
2021/07/29 09:02:35;;;;;;;4.75;2.05;;;21.30;99.90;;;;;;5082966;28;20042;-85
2021/07/29 09:05:11;;;;;;;5.60;2.25;;;21.20;99.90;;;;;;5081442;28;20485;-86
2021/07/29 09:07:37;;;;;;;5.15;2.42;;;21.10;99.90;;;;;;5074212;28;20017;-87
2021/07/29 09:10:24;;;;;;;3.85;2.17;;;21.30;99.90;;;;;;5073804;28;20024;-84
2021/07/29 09:13:22;;;;;;;4.53;2.20;;;21.40;99.90;;;;;;5083408;28;20115;-86
2021/07/29 09:16:09;;;;;;;4.75;2.35;;;21.40;99.90;;;;;;5058466;28;20142;-85
2021/07/29 09:18:35;;;;;;;5.47;2.03;;;21.60;99.90;;;;;;5078534;28;20380;-85
2021/07/29 09:21:12;;;;;;;4.00;2.03;;;21.70;99.90;;;;;;5076443;28;20357;-84
2021/07/29 09:23:37;;;;;;;4.72;2.00;;;21.90;99.90;;;;;;5075494;28;20082;-85
2021/07/29 09:26:03;;;;;;;4.53;2.10;;;22.00;99.90;;;;;;5075106;28;20027;-85
2021/07/29 09:28:38;;;;;;;4.25;2.10;;;22.10;99.90;;;;;;5074869;28;20387;-83
2021/07/29 09:31:23;;;;;;;4.90;2.47;;;22.30;99.90;;;;;;5086282;28;20048;-85
2021/07/29 09:33:59;;;;;;;5.93;2.95;;;22.60;99.90;;;;;;5078343;28;20021;-85
2021/07/29 09:36:28;;;;;;;4.13;2.00;;;22.80;99.90;;;;;;5078788;28;20024;-89
2021/07/29 09:39:21;;;;;;;5.78;2.25;;;23.00;99.90;;;;;;5075228;28;20024;-86
2021/07/29 09:41:50;;;;;;;4.65;2.30;;;23.10;99.90;;;;;;5072648;28;20033;-86
2021/07/29 09:44:39;;;;;;;3.90;2.08;;;23.10;99.90;;;;;;5076859;28;20016;-86
2021/07/29 09:47:05;;;;;;;3.67;1.88;;;23.10;99.60;;;;;;5062211;28;20058;-85
2021/07/29 09:49:34;;;;;;;5.07;2.30;;;23.00;99.80;;;;;;5073391;28;20433;-86
2021/07/29 09:52:01;;;;;;;4.05;2.22;;;23.20;99.90;;;;;;5071242;28;20078;-86
2021/07/29 09:54:28;;;;;;;4.13;2.20;;;23.20;99.90;;;;;;5076528;28;20763;-86
2021/07/29 09:56:54;;;;;;;5.03;2.42;;;23.10;99.30;;;;;;5086758;28;20499;-85
2021/07/29 09:59:20;;;;;;;4.07;2.13;;;23.40;99.90;;;;;;5071289;28;20028;-85
2021/07/29 10:01:49;;;;;;;6.13;2.00;;;23.50;99.20;;;;;;5074792;28;20070;-86
2021/07/29 10:04:18;;;;;;;5.22;2.13;;;23.40;98.30;;;;;;5076774;28;20600;-87
2021/07/29 10:06:50;;;;;;;4.55;2.33;;;23.40;98.50;;;;;;5072612;28;20024;-88
2021/07/29 10:09:18;;;;;;;4.60;2.22;;;23.60;97.90;;;;;;5074035;28;20032;-86
2021/07/29 10:11:47;;;;;;;4.95;2.30;;;23.70;98.60;;;;;;5070158;28;20025;-85
2021/07/29 10:14:12;;;;;;;5.90;2.17;;;24.00;97.90;;;;;;5075009;28;20032;-86
2021/07/29 10:16:50;;;;;;;4.57;2.60;;;24.20;97.90;;;;;;5072287;28;20017;-85
2021/07/29 10:19:17;;;;;;;4.80;2.05;;;24.50;98.00;;;;;;5068351;28;20029;-85
2021/07/29 10:21:46;;;;;;;5.30;2.22;;;24.60;97.20;;;;;;5067650;28;20021;-86
2021/07/29 10:24:15;;;;;;;3.83;2.17;;;24.90;96.80;;;;;;5073037;28;20024;-86
2021/07/29 10:26:59;;;;;;;4.55;2.22;;;24.60;96.90;;;;;;5073682;28;20020;-85
2021/07/29 10:29:30;;;;;;;4.63;2.40;;;24.80;97.50;;;;;;5074926;28;20568;-86
2021/07/29 10:32:09;;;;;;;3.85;1.95;;;24.90;96.60;;;;;;5076332;28;20122;-85
2021/07/29 10:34:35;;;;;;;4.90;2.22;;;25.10;96.10;;;;;;5075935;28;20482;-85
2021/07/29 10:37:09;;;;;;;4.93;2.40;;;25.50;95.60;;;;;;5075539;28;20048;-87
2021/07/29 10:40:00;;;;;;;5.68;2.10;;;25.60;95.40;;;;;;5074545;28;20021;-86
2021/07/29 10:42:29;;;;;;;5.03;2.25;;;25.50;95.30;;;;;;5073590;28;20028;-86
2021/07/29 10:44:56;;;;;;;3.53;2.05;;;25.30;95.50;;;;;;5077173;28;20032;-85
2021/07/29 10:47:36;;;;;;;7.45;2.78;;;24.60;95.50;;;;;;5080908;28;20092;-86
2021/07/29 10:50:02;;;;;;;4.60;2.17;;;24.90;95.40;;;;;;5071218;28;20032;-86
2021/07/29 10:52:29;;;;;;;3.13;1.92;;;24.80;95.00;;;;;;5071693;28;20073;-85
2021/07/29 10:54:56;;;;;;;4.82;2.30;;;24.50;95.80;;;;;;5088332;28;20036;-85
2021/07/29 10:57:23;;;;;;;4.70;2.20;;;24.00;95.00;;;;;;5085981;28;20104;-85
2021/07/29 10:59:52;;;;;;;6.72;2.30;;;24.10;95.40;;;;;;5068735;28;20463;-84
2021/07/29 11:02:41;;;;;;;5.85;2.47;;;24.00;95.70;;;;;;5071579;28;20130;-84
2021/07/29 11:05:09;;;;;;;4.10;2.33;;;24.00;95.90;;;;;;5072377;28;20475;-84
2021/07/29 11:07:40;;;;;;;3.88;2.22;;;24.10;95.50;;;;;;5073665;28;20032;-84
2021/07/29 11:10:08;;;;;;;4.70;2.17;;;23.70;95.80;;;;;;5069244;28;20031;-84
2021/07/29 11:12:35;;;;;;;5.70;2.88;;;23.80;95.80;;;;;;5070774;28;20032;-84
2021/07/29 11:15:03;;;;;;;4.03;2.30;;;23.70;95.50;;;;;;5070619;28;20032;-85
2021/07/29 11:17:28;;;;;;;4.10;2.20;;;23.80;95.30;;;;;;5071714;28;20019;-83
2021/07/29 11:19:54;;;;;;;4.82;2.50;;;23.90;95.80;;;;;;5078061;28;20016;-85
2021/07/29 11:22:19;;;;;;;5.10;2.42;;;24.20;95.80;;;;;;5076877;28;20513;-84
2021/07/29 11:24:45;;;;;;;5.55;2.42;;;24.00;95.50;;;;;;5074232;28;20013;-84
2021/07/29 11:27:13;;;;;;;4.57;2.47;;;23.90;95.40;;;;;;5073883;28;20419;-84
2021/07/29 11:29:59;;;;;;;4.38;2.25;;;23.80;96.10;;;;;;5074804;28;20021;-84
2021/07/29 11:32:36;;;;;;;5.43;2.53;;;24.00;95.70;;;;;;5077808;28;20036;-84
2021/07/29 11:35:03;;;;;;;4.65;2.30;;;24.60;95.70;;;;;;5077600;28;20713;-85
2021/07/29 11:37:33;;;;;;;4.38;2.20;;;25.00;94.90;;;;;;5083807;28;20032;-83
2021/07/29 11:39:59;;;;;;;4.15;2.20;;;25.40;94.00;;;;;;5086963;28;20035;-85
2021/07/29 11:42:36;;;;;;;6.18;2.60;;;25.70;93.90;;;;;;5078355;28;20401;-84
2021/07/29 11:45:02;;;;;;;6.05;2.50;;;26.00;93.40;;;;;;5077485;28;20028;-85
2021/07/29 11:47:40;;;;;;;7.47;2.58;;;26.00;92.30;;;;;;5077080;28;20021;-85
2021/07/29 11:50:06;;;;;;;6.03;2.72;;;26.30;91.90;;;;;;5072671;28;20696;-84
2021/07/29 11:52:32;;;;;;;4.70;2.53;;;26.40;91.50;;;;;;5078388;28;20031;-84
2021/07/29 11:55:11;;;;;;;6.97;2.42;;;25.90;91.90;;;;;;5077871;28;20052;-84
2021/07/29 11:57:39;;;;;;;5.63;2.53;;;25.50;92.50;;;;;;5076822;28;20028;-85
2021/07/29 12:00:06;;;;;;;4.65;2.30;;;24.90;92.90;;;;;;5074560;28;20032;-84
2021/07/29 12:02:32;;;;;;;3.95;2.20;;;24.70;93.10;;;;;;5086545;28;20017;-85
2021/07/29 12:04:58;;;;;;;4.25;2.20;;;24.50;93.00;;;;;;5082077;28;20385;-86
2021/07/29 12:07:23;;;;;;;4.05;2.55;;;24.50;92.70;;;;;;5077707;28;20040;-87
2021/07/29 12:09:50;;;;;;;5.95;2.35;;;25.00;92.10;;;;;;5071526;28;20024;-85
2021/07/29 12:12:16;;;;;;;6.30;2.47;;;25.60;91.80;;;;;;5074192;28;20025;-85
2021/07/29 12:14:46;;;;;;;4.43;2.03;;;26.20;92.00;;;;;;5080520;28;20040;-85
2021/07/29 12:17:21;;;;;;;5.32;2.03;;;26.10;92.00;;;;;;5075975;28;20016;-85
2021/07/29 12:19:57;;;;;;;8.52;2.45;;;26.60;91.10;;;;;;5076288;28;20107;-85
2021/07/29 12:22:24;;;;;;;4.38;2.35;;;27.30;90.30;;;;;;5098410;22;20048;-83
2021/07/29 12:24:50;;;;;;;4.43;2.50;;;27.60;90.50;;;;;;5072912;28;20081;-83
2021/07/29 12:27:19;;;;;;;5.53;2.22;;;27.30;90.40;;;;;;5073354;28;20020;-84
2021/07/29 12:29:46;;;;;;;5.65;2.20;;;27.70;89.10;;;;;;5072286;28;20024;-82
2021/07/29 12:32:18;;;;;;;4.85;2.30;;;27.50;86.60;;;;;;5073132;28;20020;-83
2021/07/29 12:34:43;;;;;;;4.35;2.10;;;28.00;85.40;;;;;;5065496;28;20418;-84
2021/07/29 12:37:09;;;;;;;4.35;2.20;;;27.60;87.30;;;;;;5058746;28;20052;-83
2021/07/29 12:39:34;;;;;;;4.20;2.55;;;27.10;86.80;;;;;;5070283;28;20021;-83
2021/07/29 12:42:20;;;;;;;11.10;2.65;;;26.90;87.30;;;;;;5091489;28;20384;-83
2021/07/29 12:45:05;;;;;;;6.15;2.33;;;26.40;86.70;;;;;;5069805;28;20020;-83
2021/07/29 12:47:31;;;;;;;3.63;2.03;;;26.10;86.40;;;;;;5070285;28;20028;-82
2021/07/29 12:49:58;;;;;;;4.38;2.22;;;26.70;87.60;;;;;;5085368;28;20042;-83